Time;durP1;ratioP1;P1;durP2;ratioP2;P2;SDS_P1;SDS_P2;PMS_P1;PMS_P2;Temp;Humidity;BMP_temperature;BMP_pressure;BME280_temperature;BME280_humidity;BME280_pressure;Samples;Min_cycle;Max_cycle;Signal;HPM_P1;HPM_P2
2023/07/24 00:01:37;;;;;;;5.82;3.88;;;;;;;21.86;53.18;99777.19;4119985;28;20070;-69
2023/07/24 00:03:40;;;;;;;6.47;4.18;;;;;;;21.86;53.17;99788.63;4131568;28;20166;-69
2023/07/24 00:05:44;;;;;;;6.80;4.05;;;;;;;21.84;53.33;99777.25;4132641;28;20381;-69
2023/07/24 00:07:47;;;;;;;5.32;3.55;;;;;;;21.84;53.56;99779.88;4132782;28;20039;-69
2023/07/24 00:09:50;;;;;;;7.13;3.85;;;;;;;21.82;53.95;99775.63;4134543;28;20042;-69
2023/07/24 00:11:53;;;;;;;5.90;4.00;;;;;;;21.82;54.04;99770.31;4134323;28;20038;-69
2023/07/24 00:13:56;;;;;;;5.75;3.92;;;;;;;21.82;54.06;99775.63;4117174;28;20054;-69
2023/07/24 00:15:59;;;;;;;6.82;3.97;;;;;;;21.81;54.39;99772.09;4134449;28;20042;-69
2023/07/24 00:18:01;;;;;;;5.80;4.03;;;;;;;21.82;54.27;99779.09;4134031;28;20105;-68
2023/07/24 00:20:06;;;;;;;6.72;4.35;;;;;;;21.77;54.11;99773.13;4121475;28;20097;-69
2023/07/24 00:22:10;;;;;;;;;;;;;;;21.65;54.42;99774.53;4102393;28;20494;-68
2023/07/24 00:24:13;;;;;;;8.63;4.13;;;;;;;21.68;54.59;99768.25;4127453;28;19962;-69
2023/07/24 00:26:16;;;;;;;8.25;3.97;;;;;;;21.71;54.86;99762.84;4118223;28;20053;-69
2023/07/24 00:28:19;;;;;;;5.40;3.97;;;;;;;21.73;54.99;99764.50;4118107;28;20042;-69
2023/07/24 00:30:21;;;;;;;4.55;3.38;;;;;;;21.72;54.96;99761.91;4116978;28;20042;-68
2023/07/24 00:32:25;;;;;;;5.28;3.97;;;;;;;21.70;55.09;99761.09;4100881;29;20035;-70
2023/07/24 00:34:30;;;;;;;5.97;4.03;;;;;;;21.64;54.71;99764.00;4100982;29;20106;-71
2023/07/24 00:36:33;;;;;;;6.13;3.80;;;;;;;21.59;54.80;99767.72;4101064;28;20051;-69
2023/07/24 00:38:38;;;;;;;6.63;4.63;;;;;;;21.59;54.68;99762.44;4100872;29;20489;-69
2023/07/24 00:40:40;;;;;;;6.32;3.70;;;;;;;21.50;54.63;99749.56;4116845;28;20117;-69
2023/07/24 00:42:48;;;;;;;7.43;4.03;;;;;;;21.42;54.49;99752.53;4134157;28;20069;-69
2023/07/24 00:44:50;;;;;;;7.47;4.28;;;;;;;21.41;54.96;99749.97;4134090;28;20049;-69
2023/07/24 00:46:54;;;;;;;9.80;4.05;;;;;;;21.40;55.04;99743.81;4133758;28;20038;-69
2023/07/24 00:48:57;;;;;;;6.10;4.00;;;;;;;21.42;54.97;99741.09;4116667;28;20043;-69
2023/07/24 00:51:00;;;;;;;6.50;3.83;;;;;;;21.42;55.18;99736.69;4116748;28;20572;-69
2023/07/24 00:53:03;;;;;;;7.75;4.95;;;;;;;21.41;55.22;99727.03;4115819;28;20130;-70
2023/07/24 00:55:10;;;;;;;6.30;3.70;;;;;;;21.44;55.32;99736.63;4133861;28;20349;-69
2023/07/24 00:57:13;;;;;;;6.78;4.40;;;;;;;21.43;55.40;99729.59;4106584;28;20039;-69
2023/07/24 00:59:17;;;;;;;6.55;4.57;;;;;;;21.44;55.09;99731.31;4111659;28;20034;-69
2023/07/24 01:01:20;;;;;;;7.22;4.68;;;;;;;21.41;55.17;99724.38;4108037;28;20452;-70
2023/07/24 01:03:29;;;;;;;7.47;4.57;;;;;;;21.40;55.49;99735.88;4111401;28;20043;-69
2023/07/24 01:05:33;;;;;;;6.50;4.38;;;;;;;21.34;55.67;99737.94;4115236;28;20034;-69
2023/07/24 01:07:35;;;;;;;7.57;4.60;;;;;;;21.36;55.66;99738.72;4114171;28;20094;-69
2023/07/24 01:09:39;;;;;;;7.00;4.72;;;;;;;21.35;56.07;99719.34;4111312;28;20073;-69
2023/07/24 01:11:47;;;;;;;7.53;4.70;;;;;;;21.36;56.02;99720.19;4114760;28;20058;-70
2023/07/24 01:13:57;;;;;;;7.32;4.80;;;;;;;21.42;55.70;99714.66;4132695;28;20085;-69
2023/07/24 01:16:06;;;;;;;6.85;5.22;;;;;;;21.31;55.98;99717.75;4095573;29;20047;-69
2023/07/24 01:18:10;;;;;;;6.78;4.28;;;;;;;21.27;56.16;99724.97;4114211;28;20377;-69
2023/07/24 01:20:15;;;;;;;;;;;;;;;21.17;56.72;99720.97;4132300;28;20070;-69
2023/07/24 01:22:31;;;;;;;7.85;4.93;;;;;;;21.22;56.23;99718.16;4123133;28;20004;-69
2023/07/24 01:24:46;;;;;;;6.68;4.75;;;;;;;21.26;55.25;99720.59;4106148;28;20063;-69
2023/07/24 01:26:51;;;;;;;10.90;4.38;;;;;;;21.24;55.81;99714.50;4106390;28;20163;-68
2023/07/24 01:28:54;;;;;;;9.80;4.85;;;;;;;21.25;56.00;99704.81;4099877;29;20057;-68
2023/07/24 01:30:58;;;;;;;8.43;5.35;;;;;;;21.23;56.12;99704.88;4098865;29;20043;-68
2023/07/24 01:33:01;;;;;;;7.53;4.55;;;;;;;21.20;56.19;99715.56;4114893;28;20042;-68
2023/07/24 01:35:05;;;;;;;10.23;4.60;;;;;;;21.19;56.34;99716.50;4115149;28;20043;-68
2023/07/24 01:37:08;;;;;;;8.60;5.00;;;;;;;21.17;56.28;99706.91;4098706;29;20055;-68
2023/07/24 01:39:12;;;;;;;6.10;4.55;;;;;;;21.12;56.27;99715.03;4115428;28;20081;-69
2023/07/24 01:41:16;;;;;;;8.60;4.65;;;;;;;21.11;56.38;99710.66;4096680;29;20047;-69
2023/07/24 01:43:20;;;;;;;7.80;4.97;;;;;;;21.04;56.18;99712.72;4126691;28;20117;-69
2023/07/24 01:45:23;;;;;;;;;;;;;;;20.92;56.42;99716.72;4111513;28;20489;-68
2023/07/24 01:47:26;;;;;;;7.43;5.13;;;;;;;20.97;56.21;99718.28;4111493;28;20331;-68
2023/07/24 01:49:29;;;;;;;8.25;5.30;;;;;;;21.12;55.63;99700.97;4126913;28;20035;-68
2023/07/24 01:51:33;;;;;;;9.68;5.63;;;;;;;21.16;55.06;99687.56;4110994;28;20035;-68
2023/07/24 01:53:36;;;;;;;8.27;4.68;;;;;;;21.08;55.55;99682.59;4115291;28;20046;-68
2023/07/24 01:55:39;;;;;;;7.95;5.40;;;;;;;21.06;55.48;99686.22;4110952;28;20130;-69
2023/07/24 01:57:41;;;;;;;7.75;5.38;;;;;;;21.04;55.23;99693.34;4112735;28;20042;-68
2023/07/24 01:59:45;;;;;;;8.18;5.53;;;;;;;21.06;55.33;99678.28;4130543;28;20479;-69
2023/07/24 02:01:48;;;;;;;8.38;5.40;;;;;;;21.06;55.04;99671.22;4113620;28;20043;-68
2023/07/24 02:03:51;;;;;;;11.55;5.25;;;;;;;21.06;55.22;99675.66;4131833;28;20487;-69
2023/07/24 02:05:54;;;;;;;8.88;5.45;;;;;;;21.06;55.53;99665.06;4132619;28;20493;-69
2023/07/24 02:07:57;;;;;;;8.23;5.38;;;;;;;21.07;55.45;99662.38;4098978;28;20047;-69
2023/07/24 02:10:00;;;;;;;7.35;4.90;;;;;;;21.05;55.62;99666.84;4109427;28;20043;-68
2023/07/24 02:12:03;;;;;;;8.55;5.47;;;;;;;21.01;55.70;99669.69;4122605;28;20088;-69
2023/07/24 02:14:06;;;;;;;8.00;5.35;;;;;;;20.99;55.94;99668.91;4104442;28;20062;-69
2023/07/24 02:16:10;;;;;;;11.55;5.60;;;;;;;20.97;55.46;99663.69;4111225;28;20406;-70
2023/07/24 02:18:13;;;;;;;;;;;;;;;20.88;55.50;99671.97;4100201;28;20382;-69
2023/07/24 02:20:16;;;;;;;11.02;5.60;;;;;;;20.84;55.73;99665.09;4102163;28;19929;-69
2023/07/24 02:22:19;;;;;;;8.93;5.88;;;;;;;20.82;55.84;99666.94;4121723;28;20060;-69
2023/07/24 02:24:22;;;;;;;9.25;5.40;;;;;;;20.83;55.57;99668.66;4116467;28;20043;-69
2023/07/24 02:26:25;;;;;;;7.95;5.18;;;;;;;20.84;55.85;99665.97;4083164;29;20058;-69
2023/07/24 02:28:29;;;;;;;10.82;6.57;;;;;;;20.87;55.91;99678.19;4136642;23;20046;-76
2023/07/24 02:30:32;;;;;;;8.50;5.65;;;;;;;20.86;56.15;99671.19;4131271;28;20045;-77
2023/07/24 02:32:36;;;;;;;9.38;5.40;;;;;;;20.82;56.40;99665.19;4147399;28;20038;-78
2023/07/24 02:34:39;;;;;;;;;;;;;;;20.70;56.56;99663.88;4148982;28;20038;-78
2023/07/24 02:36:44;;;;;;;8.57;5.82;;;;;;;20.72;56.38;99677.00;4130840;28;19925;-78
2023/07/24 02:38:47;;;;;;;9.48;5.82;;;;;;;20.71;56.36;99668.22;4114894;28;20082;-77
2023/07/24 02:40:50;;;;;;;8.77;5.88;;;;;;;20.74;56.51;99669.91;4132319;28;20042;-76
2023/07/24 02:42:53;;;;;;;9.32;5.75;;;;;;;20.73;56.56;99670.81;4114974;28;20489;-76
2023/07/24 02:44:56;;;;;;;9.95;5.72;;;;;;;20.73;56.69;99668.16;4115043;28;20053;-77
2023/07/24 02:46:58;;;;;;;9.00;6.20;;;;;;;20.74;56.75;99661.97;4114571;28;20047;-77
2023/07/24 02:49:03;;;;;;;9.43;6.32;;;;;;;20.75;56.67;99656.63;4115003;28;20089;-77
2023/07/24 02:51:06;;;;;;;8.07;5.00;;;;;;;20.72;56.85;99647.94;4115026;28;20540;-77
2023/07/24 02:53:09;;;;;;;8.40;5.72;;;;;;;20.73;57.15;99644.41;4098540;28;20054;-77
2023/07/24 02:55:11;;;;;;;8.88;6.13;;;;;;;20.73;56.94;99644.41;4114811;28;20102;-77
2023/07/24 02:57:14;;;;;;;11.88;6.50;;;;;;;20.71;57.05;99654.19;4114383;28;20046;-77
2023/07/24 02:59:17;;;;;;;9.55;6.22;;;;;;;20.69;56.96;99648.09;4132295;28;20056;-77
2023/07/24 03:01:20;;;;;;;10.10;6.60;;;;;;;20.66;56.94;99643.81;4114783;28;20043;-77
2023/07/24 03:03:23;;;;;;;9.70;6.70;;;;;;;20.64;57.17;99650.03;4098651;29;20126;-77
2023/07/24 03:05:27;;;;;;;9.90;6.32;;;;;;;20.68;57.38;99643.75;4098705;28;20049;-77
2023/07/24 03:07:30;;;;;;;9.02;5.93;;;;;;;20.71;57.29;99643.63;4114461;28;20046;-76
2023/07/24 03:09:33;;;;;;;7.97;5.88;;;;;;;20.69;57.54;99633.13;4098448;28;20043;-78
2023/07/24 03:11:36;;;;;;;9.05;6.15;;;;;;;20.69;57.49;99633.13;4098720;29;20047;-78
2023/07/24 03:13:40;;;;;;;8.38;5.60;;;;;;;20.71;57.54;99627.75;4114366;28;20040;-78
2023/07/24 03:15:43;;;;;;;;;;;;;;;20.66;57.74;99620.03;4093022;29;20089;-78
2023/07/24 03:17:46;;;;;;;8.55;6.05;;;;;;;20.73;57.58;99604.78;4111331;28;20021;-77
2023/07/24 03:19:49;;;;;;;8.68;6.07;;;;;;;20.61;58.09;99611.41;4113406;28;20035;-78
2023/07/24 03:21:54;;;;;;;8.80;6.13;;;;;;;20.58;58.47;99619.44;4112412;28;20046;-77
2023/07/24 03:23:56;;;;;;;10.20;6.20;;;;;;;20.58;58.38;99627.38;4120471;28;20404;-78
2023/07/24 03:25:59;;;;;;;8.68;6.10;;;;;;;20.62;58.57;99620.16;4113588;28;20066;-77
2023/07/24 03:28:03;;;;;;;9.90;5.63;;;;;;;20.63;58.60;99624.53;4131274;28;20060;-77
2023/07/24 03:30:08;;;;;;;8.27;6.13;;;;;;;20.65;58.73;99628.00;4130091;28;20053;-77
2023/07/24 03:32:10;;;;;;;9.80;6.32;;;;;;;20.66;58.92;99609.47;4124486;28;20177;-77
2023/07/24 03:34:13;;;;;;;13.68;6.57;;;;;;;20.69;58.54;99613.75;4113937;28;20069;-78
2023/07/24 03:36:16;;;;;;;10.18;5.72;;;;;;;20.70;58.55;99605.75;4114386;28;20039;-78
2023/07/24 03:38:20;;;;;;;9.77;6.40;;;;;;;20.70;58.65;99604.91;4114180;28;20047;-77
2023/07/24 03:40:22;;;;;;;10.85;6.88;;;;;;;20.66;58.91;99613.84;4131475;28;20486;-78
2023/07/24 03:42:27;;;;;;;12.35;6.32;;;;;;;20.66;58.71;99609.47;4131522;28;20045;-76
2023/07/24 03:44:30;;;;;;;9.88;6.97;;;;;;;20.66;58.93;99612.13;4098369;28;20433;-76
2023/07/24 03:46:33;;;;;;;9.65;5.93;;;;;;;20.69;58.88;99609.34;4118683;28;20045;-76
2023/07/24 03:48:36;;;;;;;9.80;6.27;;;;;;;20.69;59.26;99603.19;4115377;28;20039;-78
2023/07/24 03:50:41;;;;;;;9.77;6.90;;;;;;;20.70;58.98;99596.97;4102592;28;20074;-77
2023/07/24 03:52:44;;;;;;;9.65;6.43;;;;;;;20.68;59.02;99599.69;4130915;28;20080;-77
2023/07/24 03:54:48;;;;;;;5.95;3.95;;;;;;;20.73;58.71;99595.09;4113831;28;20510;-62
2023/07/24 03:56:51;;;;;;;7.07;4.15;;;;;;;21.01;58.19;99590.41;4098002;28;20031;-62
2023/07/24 03:58:54;;;;;;;9.75;5.72;;;;;;;21.23;57.85;99583.28;4129951;28;20043;-62
2023/07/24 04:00:57;;;;;;;10.27;6.22;;;;;;;21.36;57.49;99588.88;4125347;28;20161;-62
2023/07/24 04:03:00;;;;;;;10.93;6.30;;;;;;;21.39;57.33;99583.44;4130518;28;20050;-62
2023/07/24 04:05:04;;;;;;;9.68;6.35;;;;;;;21.44;57.09;99578.78;4131310;28;20465;-62
2023/07/24 04:07:06;;;;;;;10.02;6.40;;;;;;;21.50;57.14;99574.19;4129411;28;20066;-64
2023/07/24 04:09:10;;;;;;;10.18;6.72;;;;;;;21.52;57.10;99565.25;4112422;28;20137;-62
2023/07/24 04:11:14;;;;;;;;;;;;;;;21.48;57.28;99573.38;4126087;28;20038;-62
2023/07/24 04:13:17;;;;;;;9.48;5.65;;;;;;;21.49;57.05;99591.81;4131070;28;20335;-61
2023/07/24 04:15:20;;;;;;;10.60;5.95;;;;;;;21.52;56.98;99591.69;4130173;28;20038;-62
2023/07/24 04:17:24;;;;;;;8.82;6.07;;;;;;;21.56;57.24;99588.00;4114513;28;20034;-62
2023/07/24 04:19:27;;;;;;;9.32;5.72;;;;;;;21.63;56.82;99590.38;4131342;28;20046;-62
2023/07/24 04:21:30;;;;;;;10.00;6.45;;;;;;;21.66;56.87;99591.09;4129644;28;20038;-62
2023/07/24 04:23:32;;;;;;;8.77;5.30;;;;;;;21.64;57.03;99594.72;4129464;28;20748;-62
2023/07/24 04:25:34;;;;;;;9.10;5.93;;;;;;;21.58;56.82;99583.50;4130758;28;20096;-62
2023/07/24 04:27:39;;;;;;;10.07;6.70;;;;;;;21.48;57.46;99579.53;4129621;28;20141;-80
2023/07/24 04:29:41;;;;;;;9.55;6.25;;;;;;;21.37;57.44;99579.16;4107984;28;20074;-79
2023/07/24 04:31:45;;;;;;;8.10;5.90;;;;;;;21.33;57.49;99580.22;4098035;29;20084;-79
2023/07/24 04:33:48;;;;;;;9.00;6.45;;;;;;;21.23;57.71;99585.91;4131021;28;20042;-80
2023/07/24 04:35:51;;;;;;;9.23;6.82;;;;;;;21.18;58.04;99582.59;4113961;28;20049;-80
2023/07/24 04:37:54;;;;;;;11.77;6.40;;;;;;;21.15;58.06;99585.38;4130792;28;20101;-80
2023/07/24 04:39:57;;;;;;;11.45;6.43;;;;;;;21.05;58.20;99594.63;4114057;28;20417;-80
2023/07/24 04:41:59;;;;;;;9.45;6.18;;;;;;;21.06;58.27;99575.22;4130397;28;20500;-80
2023/07/24 04:44:04;;;;;;;9.02;6.57;;;;;;;21.11;58.08;99575.88;4133943;28;20046;-80
2023/07/24 04:46:07;;;;;;;10.93;6.78;;;;;;;21.08;58.32;99568.94;4134184;28;20077;-80
2023/07/24 04:48:10;;;;;;;8.68;6.75;;;;;;;21.08;58.25;99562.78;4116564;28;20054;-80
2023/07/24 04:50:13;;;;;;;10.07;6.18;;;;;;;21.07;58.42;99582.19;4134238;28;20077;-81
2023/07/24 04:52:16;;;;;;;9.38;5.97;;;;;;;21.06;58.32;99581.34;4134197;28;20515;-80
2023/07/24 04:54:18;;;;;;;9.43;6.03;;;;;;;21.05;58.44;99589.34;4134139;28;20034;-80
2023/07/24 04:56:21;;;;;;;8.88;5.95;;;;;;;21.03;58.28;99596.50;4134091;28;20044;-81
2023/07/24 04:58:24;;;;;;;8.85;6.10;;;;;;;21.06;58.38;99601.66;4116556;28;20074;-79
2023/07/24 05:00:28;;;;;;;9.70;6.80;;;;;;;21.11;58.01;99594.38;4134158;28;20510;-80
2023/07/24 05:02:31;;;;;;;9.75;6.63;;;;;;;21.16;58.04;99586.22;4134157;28;20125;-81
2023/07/24 05:04:34;;;;;;;9.60;6.68;;;;;;;21.18;57.73;99582.59;4134003;28;20042;-80
2023/07/24 05:06:38;;;;;;;9.10;6.18;;;;;;;21.21;57.44;99579.81;4133794;28;20046;-81
2023/07/24 05:08:41;;;;;;;10.65;7.03;;;;;;;21.20;57.75;99571.97;4116624;28;20081;-81
2023/07/24 05:10:44;;;;;;;7.50;5.35;;;;;;;21.19;57.48;99576.41;4133938;28;20047;-81
2023/07/24 05:12:47;;;;;;;11.95;7.10;;;;;;;21.21;57.67;99573.69;4134021;28;20121;-81
2023/07/24 05:14:49;;;;;;;10.10;6.90;;;;;;;21.25;57.84;99572.63;4116696;28;20090;-80
2023/07/24 05:16:53;;;;;;;10.80;5.82;;;;;;;21.26;57.91;99561.97;4133551;28;20042;-81
2023/07/24 05:18:56;;;;;;;9.43;6.43;;;;;;;21.25;58.09;99564.69;4116389;28;20133;-80
2023/07/24 05:20:58;;;;;;;10.27;5.93;;;;;;;21.28;58.18;99562.75;4099851;29;20051;-81
2023/07/24 05:23:01;;;;;;;10.20;7.35;;;;;;;21.26;58.34;99566.41;4133125;28;20069;-81
2023/07/24 05:25:05;;;;;;;9.30;6.88;;;;;;;21.33;57.78;99567.00;4132898;28;20042;-81
2023/07/24 05:27:08;;;;;;;9.25;6.50;;;;;;;21.26;57.63;99577.84;4132753;28;20042;-80
2023/07/24 05:29:10;;;;;;;11.15;6.97;;;;;;;21.23;57.41;99577.97;4115969;28;20497;-81
2023/07/24 05:31:13;;;;;;;10.05;6.40;;;;;;;21.24;57.58;99579.69;4132648;28;20416;-81
2023/07/24 05:33:18;;;;;;;11.38;7.22;;;;;;;21.28;57.38;99583.91;4132817;28;20042;-81
2023/07/24 05:35:20;;;;;;;12.68;6.07;;;;;;;21.29;57.69;99582.16;4133703;28;20038;-81
2023/07/24 05:37:23;;;;;;;15.15;6.95;;;;;;;21.31;57.74;99584.72;4133091;28;20684;-80
2023/07/24 05:39:26;;;;;;;9.48;5.72;;;;;;;21.30;57.85;99588.28;4115971;28;20089;-81
2023/07/24 05:41:29;;;;;;;10.10;6.38;;;;;;;21.33;57.86;99582.84;4132800;28;20061;-80
2023/07/24 05:43:34;;;;;;;10.27;6.80;;;;;;;21.41;58.02;99584.22;4116672;28;20042;-80
2023/07/24 05:45:37;;;;;;;10.45;7.20;;;;;;;21.40;58.07;99586.94;4116533;28;20039;-81
2023/07/24 05:47:40;;;;;;;11.18;5.70;;;;;;;21.40;58.08;99584.31;4116975;28;20495;-80
2023/07/24 05:49:44;;;;;;;10.45;6.65;;;;;;;21.36;58.20;99580.94;4116441;28;20125;-81
2023/07/24 05:51:47;;;;;;;10.93;6.95;;;;;;;21.37;58.11;99589.72;4117351;28;20062;-80
2023/07/24 05:53:50;;;;;;;9.50;6.63;;;;;;;21.29;58.06;99592.72;4116801;28;20046;-80
2023/07/24 05:55:58;;;;;;;9.35;5.60;;;;;;;21.32;57.84;99599.63;4116726;28;20035;-80
2023/07/24 05:58:01;;;;;;;8.50;6.03;;;;;;;21.24;58.07;99594.69;4116940;28;20047;-80
2023/07/24 06:00:05;;;;;;;10.23;6.63;;;;;;;21.27;58.20;99600.72;4130892;28;20129;-81
2023/07/24 06:02:13;;;;;;;9.00;6.53;;;;;;;21.30;58.13;99604.16;4133079;28;20050;-80
2023/07/24 06:04:14;;;;;;;11.25;6.53;;;;;;;21.31;58.17;99605.88;4133298;28;20504;-81
2023/07/24 06:06:21;;;;;;;7.93;5.88;;;;;;;21.31;58.44;99601.44;4132955;28;20492;-81
2023/07/24 06:08:24;;;;;;;10.18;6.80;;;;;;;21.35;58.60;99607.44;4133032;28;20514;-80
2023/07/24 06:10:26;;;;;;;9.35;6.05;;;;;;;21.41;58.49;99601.88;4133148;28;20038;-80
2023/07/24 06:12:29;;;;;;;9.63;6.35;;;;;;;21.50;58.50;99609.41;4132967;28;20133;-81
2023/07/24 06:14:31;;;;;;;10.80;6.70;;;;;;;21.50;58.79;99605.91;4132922;28;20548;-80
2023/07/24 06:16:34;;;;;;;8.95;5.82;;;;;;;21.50;58.24;99600.63;4132537;28;20106;-80
2023/07/24 06:18:37;;;;;;;13.30;7.20;;;;;;;21.51;58.50;99603.22;4132857;28;20484;-81
2023/07/24 06:20:40;;;;;;;10.98;7.25;;;;;;;21.66;57.98;99604.31;4132719;28;20045;-80
2023/07/24 06:22:44;;;;;;;12.25;6.35;;;;;;;21.55;58.48;99614.50;4131763;28;20042;-80
2023/07/24 06:24:47;;;;;;;9.15;6.05;;;;;;;21.51;58.46;99607.63;4132622;28;20050;-80
2023/07/24 06:26:50;;;;;;;11.23;7.03;;;;;;;21.48;58.79;99605.09;4132278;28;20097;-80
2023/07/24 06:28:53;;;;;;;10.30;6.85;;;;;;;21.53;58.63;99611.09;4132402;28;20077;-80
2023/07/24 06:30:55;;;;;;;10.63;6.32;;;;;;;21.52;58.61;99602.28;4132763;28;20097;-80
2023/07/24 06:32:58;;;;;;;14.80;7.28;;;;;;;21.63;58.95;99603.63;4132250;28;20048;-80
2023/07/24 06:35:01;;;;;;;9.30;6.63;;;;;;;21.61;59.35;99604.53;4132554;28;20404;-80
2023/07/24 06:37:04;;;;;;;10.70;6.68;;;;;;;21.69;58.81;99598.88;4132186;28;20097;-80
2023/07/24 06:39:25;;;;;;;11.95;7.15;;;;;;;21.64;58.84;99608.81;4115286;28;20054;-79
2023/07/24 06:41:28;;;;;;;12.43;7.82;;;;;;;21.75;59.19;99606.53;4132482;28;20051;-79
2023/07/24 06:43:31;;;;;;;11.10;7.55;;;;;;;21.70;58.93;99608.53;4132390;28;20042;-81
2023/07/24 06:45:34;;;;;;;8.60;6.65;;;;;;;21.71;59.20;99609.38;4115181;28;20069;-79
2023/07/24 06:47:36;;;;;;;11.75;7.45;;;;;;;21.70;58.89;99610.31;4148004;28;20563;-79
2023/07/24 06:49:39;;;;;;;9.65;7.05;;;;;;;21.73;59.00;99604.91;4132467;28;20077;-79
2023/07/24 06:51:42;;;;;;;8.65;6.28;;;;;;;21.83;58.56;99614.13;4098728;29;20051;-80
2023/07/24 06:53:45;;;;;;;11.10;7.60;;;;;;;21.76;58.58;99608.25;4132271;28;20447;-79
2023/07/24 06:55:49;;;;;;;13.25;8.40;;;;;;;21.81;58.31;99608.03;4114973;28;20077;-79
2023/07/24 06:57:52;;;;;;;11.30;7.15;;;;;;;21.92;57.89;99602.28;4131875;28;20038;-79
2023/07/24 06:59:55;;;;;;;11.45;7.10;;;;;;;21.87;58.10;99593.66;4132187;28;20081;-80
2023/07/24 07:01:58;;;;;;;12.27;7.13;;;;;;;21.82;58.31;99595.69;4113854;28;20496;-79
2023/07/24 07:04:01;;;;;;;12.60;7.20;;;;;;;21.92;58.29;99602.28;4132113;28;20121;-80
2023/07/24 07:06:04;;;;;;;11.98;7.50;;;;;;;22.16;58.04;99594.09;4131736;28;20042;-80
2023/07/24 07:08:07;;;;;;;10.05;7.30;;;;;;;22.28;57.77;99580.25;4131651;28;20403;-80
2023/07/24 07:10:10;;;;;;;10.30;6.68;;;;;;;22.28;57.75;99570.53;4114745;28;20046;-80
2023/07/24 07:12:14;;;;;;;8.85;6.55;;;;;;;22.39;57.88;99579.78;4131939;28;20138;-80
2023/07/24 07:14:17;;;;;;;10.40;7.10;;;;;;;22.48;57.68;99574.03;4131998;28;20093;-80
2023/07/24 07:16:20;;;;;;;12.82;7.90;;;;;;;22.59;57.38;99569.06;4131756;28;20073;-79
2023/07/24 07:18:23;;;;;;;11.27;7.80;;;;;;;22.46;57.65;99581.19;4098608;29;20043;-79
2023/07/24 07:20:26;;;;;;;11.77;7.78;;;;;;;22.52;57.68;99572.94;4114500;28;20048;-79
2023/07/24 07:22:29;;;;;;;9.85;6.50;;;;;;;22.62;57.40;99576.84;4131822;28;20048;-79
2023/07/24 07:24:32;;;;;;;10.13;7.28;;;;;;;22.77;57.36;99569.06;4131617;28;20511;-79
2023/07/24 07:26:34;;;;;;;13.38;8.30;;;;;;;22.87;57.15;99570.31;4131512;28;20492;-79
2023/07/24 07:28:39;;;;;;;14.10;8.27;;;;;;;22.87;56.96;99574.72;4131663;28;20044;-79
2023/07/24 07:30:41;;;;;;;;;;;;;;;22.84;57.36;99581.91;4132105;28;20046;-79
2023/07/24 07:32:48;;;;;;;10.65;7.18;;;;;;;22.83;57.59;99585.50;4131650;28;19922;-79
2023/07/24 07:34:51;;;;;;;10.80;7.93;;;;;;;23.05;56.59;99591.50;4131914;28;20049;-79
2023/07/24 07:36:54;;;;;;;9.68;6.82;;;;;;;22.90;57.16;99591.34;4131705;28;20066;-79
2023/07/24 07:38:57;;;;;;;14.23;8.10;;;;;;;22.82;57.60;99601.47;4132073;28;20101;-79
2023/07/24 07:41:04;;;;;;;15.70;7.38;;;;;;;22.81;57.60;99602.44;4131499;28;20073;-78
2023/07/24 07:43:07;;;;;;;16.98;8.35;;;;;;;22.82;57.94;99604.13;4131565;28;20042;-78
2023/07/24 07:45:12;;;;;;;10.57;6.78;;;;;;;22.84;58.09;99612.88;4131528;28;20050;-78
2023/07/24 07:47:13;;;;;;;;;;;;;;;22.90;57.97;99598.47;4131765;28;20046;-78
2023/07/24 07:49:16;;;;;;;13.45;8.02;;;;;;;22.94;57.69;99597.34;4131534;28;19922;-79
2023/07/24 07:51:19;;;;;;;12.45;7.82;;;;;;;23.00;57.37;99594.41;4130083;28;20037;-79
2023/07/24 07:53:22;;;;;;;13.43;7.85;;;;;;;23.04;57.63;99593.28;4114065;28;20039;-78
2023/07/24 07:55:25;;;;;;;13.98;8.05;;;;;;;23.14;57.26;99601.66;4131389;28;20051;-79
2023/07/24 07:57:28;;;;;;;11.45;6.95;;;;;;;23.09;56.99;99593.06;4130727;28;20038;-78
2023/07/24 07:59:31;;;;;;;17.23;7.55;;;;;;;23.07;57.42;99598.47;4131413;28;20128;-78
2023/07/24 08:01:36;;;;;;;11.70;8.52;;;;;;;23.14;57.33;99602.53;4114178;28;20069;-79
2023/07/24 08:03:49;;;;;;;10.00;7.57;;;;;;;23.07;57.49;99592.28;4131476;28;20467;-78
2023/07/24 08:05:51;;;;;;;11.55;8.13;;;;;;;23.06;57.52;99596.72;4131385;28;20496;-78
2023/07/24 08:07:54;;;;;;;10.07;6.63;;;;;;;23.07;57.60;99594.94;4131088;28;20492;-78
2023/07/24 08:09:56;;;;;;;12.38;7.03;;;;;;;23.14;57.81;99588.41;4131481;28;20143;-78
2023/07/24 08:11:59;;;;;;;10.57;7.90;;;;;;;23.18;57.96;99590.81;4131348;28;20073;-78
2023/07/24 08:14:02;;;;;;;12.20;8.13;;;;;;;23.06;57.55;99586.13;4131312;28;20069;-78
2023/07/24 08:16:06;;;;;;;10.35;6.18;;;;;;;23.07;57.62;99592.28;4114025;28;20456;-78
2023/07/24 08:18:10;;;;;;;13.98;7.63;;;;;;;23.15;57.31;99587.47;4132798;28;20042;-78
2023/07/24 08:20:13;;;;;;;;;;;;;;;23.06;57.66;99575.53;4135037;28;20125;-79
2023/07/24 08:22:16;;;;;;;11.45;7.25;;;;;;;23.11;57.38;99572.66;4134435;28;19961;-78
2023/07/24 08:24:19;;;;;;;11.98;7.53;;;;;;;23.24;56.87;99567.56;4117224;28;20105;-78
2023/07/24 08:26:22;;;;;;;13.43;7.80;;;;;;;23.32;56.55;99566.22;4134244;28;20066;-78
2023/07/24 08:28:25;;;;;;;12.77;7.57;;;;;;;23.41;56.68;99558.69;4138876;23;20042;-65
2023/07/24 08:30:28;;;;;;;13.35;7.47;;;;;;;23.52;56.66;99551.91;4150586;28;20084;-65
2023/07/24 08:32:31;;;;;;;12.90;8.00;;;;;;;23.56;56.04;99546.44;4132969;28;20046;-65
2023/07/24 08:34:35;;;;;;;8.85;6.30;;;;;;;23.58;56.29;99540.06;4150588;28;20077;-65
2023/07/24 08:36:38;;;;;;;11.15;6.88;;;;;;;23.82;55.77;99542.34;4150212;28;20403;-65
2023/07/24 08:38:42;;;;;;;10.40;6.75;;;;;;;23.86;55.83;99533.31;4150380;28;20136;-65
2023/07/24 08:40:45;;;;;;;11.38;7.10;;;;;;;23.78;55.07;99546.94;4150449;28;20042;-65
2023/07/24 08:42:50;;;;;;;11.18;6.63;;;;;;;23.88;55.72;99552.66;4150199;28;20128;-65
2023/07/24 08:44:54;;;;;;;9.40;6.30;;;;;;;23.82;55.29;99563.56;4150531;28;20104;-65
2023/07/24 08:46:57;;;;;;;12.82;7.53;;;;;;;23.87;55.36;99565.06;4139452;28;20038;-65
2023/07/24 08:49:00;;;;;;;10.88;7.13;;;;;;;24.01;55.62;99558.13;4134497;28;20042;-65
2023/07/24 08:51:05;;;;;;;9.82;6.68;;;;;;;23.93;55.27;99561.19;4145251;28;20129;-65
2023/07/24 08:53:08;;;;;;;13.20;7.80;;;;;;;23.95;54.95;99561.13;4149206;28;20499;-65
2023/07/24 08:55:11;;;;;;;13.90;8.45;;;;;;;24.03;54.86;99562.41;4132799;28;20146;-65
2023/07/24 08:57:15;;;;;;;11.23;7.25;;;;;;;23.95;55.26;99556.69;4149927;28;20038;-65
2023/07/24 08:59:18;;;;;;;9.87;6.77;;;;;;;23.97;54.94;99568.06;4150287;28;20533;-65
2023/07/24 09:01:21;;;;;;;11.68;7.43;;;;;;;23.96;54.99;99566.34;4150075;28;20038;-65
2023/07/24 09:03:24;;;;;;;11.48;6.72;;;;;;;23.85;55.27;99566.06;4150467;28;20125;-65
2023/07/24 09:05:27;;;;;;;9.52;6.28;;;;;;;23.92;54.93;99556.84;4149701;28;20038;-65
2023/07/24 09:07:32;;;;;;;8.82;6.72;;;;;;;23.87;55.38;99561.53;4133501;28;20046;-65
2023/07/24 09:09:34;;;;;;;12.25;6.70;;;;;;;23.93;55.22;99545.28;4116473;28;20092;-65
2023/07/24 09:11:46;;;;;;;11.98;7.07;;;;;;;24.04;54.75;99539.38;4116517;28;20055;-65
2023/07/24 09:13:49;;;;;;;12.40;7.45;;;;;;;24.11;55.06;99527.47;4116393;28;20652;-65
2023/07/24 09:15:56;;;;;;;10.98;7.10;;;;;;;24.17;54.95;99520.94;4133917;28;20528;-65
2023/07/24 09:17:59;;;;;;;10.05;7.07;;;;;;;24.19;55.21;99511.06;4133288;28;20073;-65
2023/07/24 09:20:03;;;;;;;9.63;6.68;;;;;;;24.29;55.51;99496.31;4116416;28;20048;-65
2023/07/24 09:22:10;;;;;;;;;;;;;;;24.39;54.70;99491.34;4116761;28;20051;-65
2023/07/24 09:24:15;;;;;;;14.38;7.63;;;;;;;24.38;54.77;99494.94;4133904;28;20326;-65
2023/07/24 09:26:18;;;;;;;11.35;7.85;;;;;;;24.40;54.90;99491.25;4133604;28;20401;-65
2023/07/24 09:28:24;;;;;;;11.35;7.63;;;;;;;24.47;54.54;99498.84;4133114;28;20048;-65
2023/07/24 09:30:27;;;;;;;8.35;6.10;;;;;;;24.35;54.77;99495.09;4148378;28;20084;-65
2023/07/24 09:32:31;;;;;;;11.30;6.57;;;;;;;24.17;55.17;99500.53;4133429;28;20490;-65
2023/07/24 09:34:34;;;;;;;11.32;6.50;;;;;;;24.09;55.50;99501.94;4116231;28;20093;-65
2023/07/24 09:36:38;;;;;;;9.98;6.60;;;;;;;24.13;55.66;99508.78;4115840;28;20051;-65
2023/07/24 09:38:42;;;;;;;11.10;6.40;;;;;;;24.05;55.86;99522.50;4133295;28;20261;-65
2023/07/24 09:40:47;;;;;;;11.23;6.25;;;;;;;23.97;56.09;99530.88;4147431;28;20119;-65